createdAt,value
2022-11-30T00:01:14.568Z,96780.66
2022-11-30T00:03:41.748Z,96801.81
2022-11-30T00:06:11.009Z,96801.81
2022-11-30T00:08:38.338Z,96793.88
2022-11-30T00:11:18.077Z,96785.84
2022-11-30T00:13:45.353Z,96796.00
2022-11-30T00:16:12.144Z,96784.31
2022-11-30T00:18:39.207Z,96767.75
2022-11-30T00:21:11.147Z,96761.06
2022-11-30T00:23:40.228Z,96759.25
2022-11-30T00:26:09.660Z,96756.09
2022-11-30T00:28:37.775Z,96761.34
2022-11-30T00:31:06.986Z,96757.44
2022-11-30T00:33:34.871Z,96762.13
2022-11-30T00:36:04.698Z,96771.09
2022-11-30T00:38:32.159Z,96771.69
2022-11-30T00:41:00.131Z,96761.84
2022-11-30T00:43:26.913Z,96777.94
2022-11-30T00:45:53.991Z,96755.16
2022-11-30T00:48:20.982Z,96766.09
2022-11-30T00:50:51.632Z,96768.81
2022-11-30T00:53:18.934Z,96764.53
2022-11-30T00:55:46.156Z,96769.88
2022-11-30T00:58:13.308Z,96768.25
2022-11-30T01:00:41.528Z,96763.06
2022-11-30T01:03:08.818Z,96764.59
2022-11-30T01:05:36.663Z,96769.31
2022-11-30T01:08:05.384Z,96791.47
2022-11-30T01:10:32.881Z,96801.06
2022-11-30T01:12:59.560Z,96815.00
2022-11-30T01:15:26.263Z,96816.38
2022-11-30T01:17:52.962Z,96817.88
2022-11-30T01:20:19.969Z,96816.38
2022-11-30T01:22:46.754Z,96838.81
2022-11-30T01:25:13.481Z,96802.88
2022-11-30T01:27:40.691Z,96793.59
2022-11-30T01:30:08.213Z,96795.41
2022-11-30T01:32:35.043Z,96796.16
2022-11-30T01:35:01.914Z,96788.41
2022-11-30T01:37:30.233Z,96787.66
2022-11-30T01:39:57.124Z,96785.69
2022-11-30T01:42:24.390Z,96775.06
2022-11-30T01:44:52.946Z,96773.34
2022-11-30T01:47:40.659Z,96771.25
2022-11-30T01:50:15.252Z,96757.38
2022-11-30T01:52:46.987Z,96755.00
2022-11-30T01:55:21.598Z,96762.44
2022-11-30T01:57:52.428Z,96765.03
2022-11-30T02:00:20.123Z,96759.69
2022-11-30T02:02:55.099Z,96757.84
2022-11-30T02:05:22.099Z,96757.59
2022-11-30T02:07:49.035Z,96759.97
2022-11-30T02:10:19.406Z,96767.91
2022-11-30T02:13:05.237Z,96788.94
2022-11-30T02:15:42.452Z,96767.13
2022-11-30T02:18:16.380Z,96759.69
2022-11-30T02:20:42.908Z,96764.53
2022-11-30T02:23:09.848Z,96763.94
2022-11-30T02:25:59.632Z,96763.66
2022-11-30T02:29:03.625Z,96763.34
2022-11-30T02:31:49.099Z,96777.94
2022-11-30T02:34:17.976Z,96765.19
2022-11-30T02:36:46.314Z,96766.50
2022-11-30T02:39:13.127Z,96779.00
2022-11-30T02:41:41.039Z,96769.88
2022-11-30T02:44:11.280Z,96777.81
2022-11-30T02:47:02.355Z,96761.06
2022-11-30T02:49:47.428Z,96762.91
2022-11-30T02:52:16.437Z,96761.34
2022-11-30T02:54:43.480Z,96760.00
2022-11-30T02:57:10.188Z,96770.66
2022-11-30T02:59:37.289Z,96766.50
2022-11-30T03:02:04.035Z,96769.09
2022-11-30T03:04:30.845Z,96767.00
2022-11-30T03:06:57.577Z,96777.81
2022-11-30T03:09:24.213Z,96773.97
2022-11-30T03:11:51.504Z,96772.94
2022-11-30T03:14:18.156Z,96772.16
2022-11-30T03:16:44.796Z,96777.31
2022-11-30T03:19:11.540Z,96780.09
2022-11-30T03:21:38.197Z,96778.31
2022-11-30T03:24:05.029Z,96770.34
2022-11-30T03:26:31.698Z,96770.56
2022-11-30T03:28:58.347Z,96776.75
2022-11-30T03:31:25.156Z,96784.50
2022-11-30T03:33:51.878Z,96802.56
2022-11-30T03:36:18.604Z,96772.81
2022-11-30T03:38:47.693Z,96778.00
2022-11-30T03:41:19.066Z,96773.91
2022-11-30T03:43:47.020Z,96772.25
2022-11-30T03:46:14.562Z,96766.16
2022-11-30T03:48:44.273Z,96764.00
2022-11-30T03:51:12.496Z,96767.84
2022-11-30T03:53:40.210Z,96770.16
2022-11-30T03:56:08.782Z,96759.47
2022-11-30T03:58:35.817Z,96770.41
2022-11-30T04:01:06.768Z,96765.56
2022-11-30T04:03:34.513Z,96751.59
2022-11-30T04:06:01.576Z,96758.56
2022-11-30T04:08:29.313Z,96765.25
2022-11-30T04:10:57.451Z,96754.00
2022-11-30T04:13:24.855Z,96759.44
2022-11-30T04:15:52.876Z,96759.44
2022-11-30T04:18:21.268Z,96772.34
2022-11-30T04:20:51.256Z,96811.38
2022-11-30T04:23:18.457Z,96809.84
2022-11-30T04:25:45.848Z,96776.94
2022-11-30T04:28:12.539Z,96807.16
2022-11-30T04:30:39.227Z,96787.25
2022-11-30T04:33:06.512Z,96781.63
2022-11-30T04:35:34.021Z,96784.69
2022-11-30T04:38:01.172Z,96768.16
2022-11-30T04:40:27.882Z,96774.06
2022-11-30T04:42:54.646Z,96777.41
2022-11-30T04:45:21.515Z,96777.13
2022-11-30T04:47:48.216Z,96804.50
2022-11-30T04:50:14.951Z,96796.72
2022-11-30T04:52:41.683Z,96793.06
2022-11-30T04:55:09.080Z,96810.72
2022-11-30T04:57:35.852Z,96807.06
2022-11-30T05:00:04.065Z,96810.88
2022-11-30T05:02:31.103Z,96803.38
2022-11-30T05:04:57.953Z,96803.88
2022-11-30T05:07:24.994Z,96800.81
2022-11-30T05:09:51.830Z,96790.47
2022-11-30T05:12:18.601Z,96797.47
2022-11-30T05:14:45.941Z,96799.78
2022-11-30T05:17:12.868Z,96789.13
2022-11-30T05:19:42.899Z,96800.81
2022-11-30T05:22:09.897Z,96787.75
2022-11-30T05:24:36.610Z,96785.47
2022-11-30T05:27:07.682Z,96783.81
2022-11-30T05:29:37.761Z,96793.41
2022-11-30T05:32:04.578Z,96853.88
2022-11-30T05:34:37.667Z,96795.91
2022-11-30T05:37:16.281Z,96790.16
2022-11-30T05:39:43.034Z,96786.03
2022-11-30T05:42:09.685Z,96796.56
2022-11-30T05:44:36.365Z,96798.38
2022-11-30T05:47:03.140Z,96811.00
2022-11-30T05:49:29.949Z,96805.91
2022-11-30T05:51:56.682Z,96833.56
2022-11-30T05:54:23.409Z,96823.41
2022-11-30T05:56:54.486Z,96837.13
2022-11-30T05:59:22.856Z,96839.88
2022-11-30T06:01:52.494Z,96891.06
2022-11-30T06:04:19.828Z,96872.72
2022-11-30T06:06:46.590Z,96832.91
2022-11-30T06:09:13.312Z,96813.44
2022-11-30T06:11:39.976Z,96814.06
2022-11-30T06:14:07.035Z,96818.25
2022-11-30T06:16:33.768Z,96811.47
2022-11-30T06:19:00.585Z,96807.38
2022-11-30T06:21:27.320Z,96822.66
2022-11-30T06:23:54.134Z,96810.50
2022-11-30T06:26:21.208Z,96809.94
2022-11-30T06:28:48.862Z,96815.66
2022-11-30T06:31:16.814Z,96815.41
2022-11-30T06:33:43.867Z,96836.81
2022-11-30T06:36:10.812Z,96823.41
2022-11-30T06:38:37.881Z,96832.41
2022-11-30T06:41:06.891Z,96827.81
2022-11-30T06:43:38.053Z,96830.63
2022-11-30T06:46:05.937Z,96861.41
2022-11-30T06:48:33.774Z,96833.00
2022-11-30T06:51:00.771Z,96822.09
2022-11-30T06:53:27.859Z,96826.50
2022-11-30T06:55:56.908Z,96845.63
2022-11-30T06:58:23.693Z,96819.81
2022-11-30T07:00:50.422Z,96822.66
2022-11-30T07:03:17.308Z,96818.56
2022-11-30T07:05:46.007Z,96823.72
2022-11-30T07:08:14.338Z,96834.63
2022-11-30T07:10:45.263Z,96825.25
2022-11-30T07:13:17.482Z,96843.63
2022-11-30T07:15:45.353Z,96837.13
2022-11-30T07:18:12.556Z,96842.56
2022-11-30T07:20:39.873Z,96838.38
2022-11-30T07:23:25.060Z,96843.53
2022-11-30T07:26:08.068Z,96857.47
2022-11-30T07:28:36.756Z,96867.97
2022-11-30T07:31:16.771Z,96864.81
2022-11-30T07:33:43.747Z,96885.28
2022-11-30T07:36:10.783Z,96868.19
2022-11-30T07:38:38.629Z,96869.44
2022-11-30T07:41:05.706Z,96871.72
2022-11-30T07:43:33.202Z,96874.78
2022-11-30T07:46:01.517Z,96875.81
2022-11-30T07:48:28.313Z,96880.22
2022-11-30T07:50:56.426Z,96891.81
2022-11-30T07:53:23.162Z,96888.47
2022-11-30T07:55:55.539Z,96889.72
2022-11-30T07:58:23.567Z,96893.91
2022-11-30T08:00:50.310Z,96893.72
2022-11-30T08:03:17.044Z,96890.84
2022-11-30T08:05:43.688Z,96892.38
2022-11-30T08:08:10.350Z,96891.88
2022-11-30T08:10:36.983Z,96902.44
2022-11-30T08:13:03.905Z,96926.91
2022-11-30T08:15:32.710Z,96908.06
2022-11-30T08:18:05.496Z,96926.63
2022-11-30T08:20:32.334Z,96927.38
2022-11-30T08:22:59.560Z,96919.16
2022-11-30T08:25:26.337Z,96906.69
2022-11-30T08:27:53.081Z,96914.94
2022-11-30T08:30:19.918Z,96915.53
2022-11-30T08:32:46.694Z,96910.84
2022-11-30T08:35:13.437Z,96929.38
2022-11-30T08:37:40.279Z,96917.88
2022-11-30T08:40:07.618Z,96906.97
2022-11-30T08:42:34.534Z,96904.56
2022-11-30T08:45:01.727Z,96927.53
2022-11-30T08:47:30.326Z,96909.16
2022-11-30T08:49:58.436Z,96885.00
2022-11-30T08:52:25.250Z,96911.44
2022-11-30T08:54:52.406Z,96899.75
2022-11-30T08:57:21.648Z,96904.19
2022-11-30T08:59:49.130Z,96906.75
2022-11-30T09:02:18.516Z,96901.91
2022-11-30T09:04:49.195Z,96909.69
2022-11-30T09:07:16.404Z,96903.47
2022-11-30T09:09:43.547Z,96924.72
2022-11-30T09:12:10.488Z,96922.50
2022-11-30T09:14:37.276Z,96970.00
2022-11-30T09:17:04.104Z,96945.34
2022-11-30T09:19:30.846Z,96947.38
2022-11-30T09:21:57.563Z,96956.66
2022-11-30T09:24:24.337Z,96951.59
2022-11-30T09:26:51.035Z,96933.38
2022-11-30T09:29:17.806Z,96925.63
2022-11-30T09:31:44.558Z,96923.38
2022-11-30T09:34:12.211Z,96918.53
2022-11-30T09:36:39.027Z,96925.09
2022-11-30T09:39:06.626Z,96925.38
2022-11-30T09:41:37.062Z,96918.84
2022-11-30T09:44:13.407Z,96927.38
2022-11-30T09:46:47.207Z,96935.72
2022-11-30T09:49:25.063Z,96936.03
2022-11-30T09:51:54.967Z,96969.91
2022-11-30T09:54:35.655Z,96977.41
2022-11-30T09:57:15.625Z,96946.00
2022-11-30T09:59:48.633Z,96939.69
2022-11-30T10:02:18.186Z,96926.16
2022-11-30T10:04:45.834Z,96943.69
2022-11-30T10:07:40.947Z,96928.34
2022-11-30T10:10:33.104Z,96914.34
2022-11-30T10:13:28.202Z,96936.25
2022-11-30T10:16:06.857Z,96926.53
2022-11-30T10:19:07.700Z,96919.53
2022-11-30T10:21:56.105Z,96924.28
2022-11-30T10:24:34.551Z,96915.47
2022-11-30T10:27:23.685Z,96915.94
2022-11-30T10:29:51.098Z,96935.41
2022-11-30T10:32:22.116Z,96909.22
2022-11-30T10:35:01.911Z,96912.22
2022-11-30T10:37:35.830Z,96917.56
2022-11-30T10:40:13.279Z,96918.63
2022-11-30T10:42:48.160Z,96932.03
2022-11-30T10:45:19.931Z,96926.75
2022-11-30T10:47:52.708Z,96916.09
2022-11-30T10:50:21.917Z,96901.09
2022-11-30T10:52:52.146Z,96906.72
2022-11-30T10:55:23.686Z,96924.84
2022-11-30T10:57:56.138Z,96943.59
2022-11-30T11:00:22.912Z,96923.81
2022-11-30T11:02:50.665Z,96907.13
2022-11-30T11:05:20.444Z,96885.34
2022-11-30T11:08:19.750Z,96893.41
2022-11-30T11:10:49.892Z,96909.09
2022-11-30T11:13:18.758Z,96914.75
2022-11-30T11:16:00.296Z,96906.97
2022-11-30T11:18:29.451Z,96883.59
2022-11-30T11:21:06.152Z,96880.81
2022-11-30T11:23:40.896Z,96918.25
2022-11-30T11:26:17.458Z,96913.72
2022-11-30T11:28:46.791Z,96908.09
2022-11-30T11:31:39.334Z,96906.31
2022-11-30T11:34:24.180Z,96909.19
2022-11-30T11:37:06.176Z,96901.25
2022-11-30T11:39:32.926Z,96892.41
2022-11-30T11:42:00.665Z,96902.34
2022-11-30T11:44:28.252Z,96899.34
2022-11-30T11:46:58.461Z,96907.38
2022-11-30T11:49:29.508Z,96919.28
2022-11-30T11:52:11.555Z,96917.28
2022-11-30T11:54:41.037Z,96916.69
2022-11-30T11:57:11.833Z,96912.47
2022-11-30T12:00:02.210Z,96914.41
2022-11-30T12:02:53.656Z,96907.28
2022-11-30T12:05:29.557Z,96908.19
2022-11-30T12:08:05.223Z,96901.81
2022-11-30T12:10:51.735Z,96911.84
2022-11-30T12:13:24.706Z,96909.69
2022-11-30T12:16:07.747Z,96906.63
2022-11-30T12:18:43.973Z,96908.94
2022-11-30T12:21:16.532Z,96915.81
2022-11-30T12:23:58.227Z,96908.34
2022-11-30T12:26:45.341Z,96911.53
2022-11-30T12:29:22.000Z,96911.81
2022-11-30T12:32:13.513Z,96906.16
2022-11-30T12:35:17.965Z,96907.09
2022-11-30T12:38:02.970Z,96914.22
2022-11-30T12:40:57.707Z,96919.09
2022-11-30T12:43:38.841Z,96911.34
2022-11-30T12:46:25.812Z,96912.41
2022-11-30T12:49:09.114Z,96918.66
2022-11-30T12:51:59.238Z,96908.44
2022-11-30T12:54:58.363Z,96912.25
2022-11-30T12:57:58.185Z,96909.94
2022-11-30T13:00:35.663Z,96913.59
2022-11-30T13:03:37.441Z,96902.94
2022-11-30T13:06:18.635Z,96924.38
2022-11-30T13:09:00.364Z,96911.56
2022-11-30T13:11:56.595Z,96909.84
2022-11-30T13:14:25.986Z,96928.56
2022-11-30T13:17:18.084Z,96932.09
2022-11-30T13:19:53.118Z,96928.16
2022-11-30T13:22:32.463Z,96924.78
2022-11-30T13:25:59.342Z,96924.94
2022-11-30T13:28:49.152Z,96916.97
2022-11-30T13:31:26.209Z,96910.81
2022-11-30T13:33:53.035Z,96910.91
2022-11-30T13:36:35.162Z,96902.41
2022-11-30T13:39:14.084Z,96904.81
2022-11-30T13:41:46.796Z,96890.13
2022-11-30T13:44:33.434Z,96905.00
2022-11-30T13:47:31.045Z,96894.94
2022-11-30T13:50:00.851Z,96898.75
2022-11-30T13:52:58.733Z,96902.50
2022-11-30T13:55:50.442Z,96906.28
2022-11-30T13:58:19.700Z,96891.91
2022-11-30T14:01:18.769Z,96898.63
2022-11-30T14:04:14.429Z,96900.44
2022-11-30T14:06:51.829Z,96902.75
2022-11-30T14:09:37.425Z,96903.22
2022-11-30T14:12:37.234Z,96908.78
2022-11-30T14:15:31.736Z,96908.13
2022-11-30T14:17:59.071Z,96915.50
2022-11-30T14:20:37.541Z,96900.09
2022-11-30T14:23:13.479Z,96896.09
2022-11-30T14:25:46.985Z,96896.53
2022-11-30T14:28:17.897Z,96897.03
2022-11-30T14:30:45.641Z,96890.91
2022-11-30T14:33:27.599Z,96904.53
2022-11-30T14:35:56.749Z,96889.84
2022-11-30T14:38:31.311Z,96899.44
2022-11-30T14:40:58.466Z,96881.84
2022-11-30T14:43:25.657Z,96894.25
2022-11-30T14:46:07.129Z,96895.97
2022-11-30T14:48:36.003Z,96903.47
2022-11-30T14:51:06.800Z,96900.03
2022-11-30T14:53:43.664Z,96910.19
2022-11-30T14:56:31.601Z,96905.78
2022-11-30T14:59:03.707Z,96911.72
2022-11-30T15:01:32.691Z,96907.13
2022-11-30T15:04:12.635Z,96902.91
2022-11-30T15:06:40.665Z,96907.88
2022-11-30T15:09:16.660Z,96902.72
2022-11-30T15:11:46.923Z,96897.53
2022-11-30T15:14:13.713Z,96901.47
2022-11-30T15:16:53.208Z,96893.13
2022-11-30T15:19:32.847Z,96882.03
2022-11-30T15:22:00.448Z,96887.03
2022-11-30T15:24:29.515Z,96884.94
2022-11-30T15:27:08.810Z,96887.28
2022-11-30T15:29:42.691Z,96887.78
2022-11-30T15:32:17.732Z,96890.47
2022-11-30T15:34:53.531Z,96901.56
2022-11-30T15:37:39.123Z,96913.63
2022-11-30T15:40:08.698Z,96908.25
2022-11-30T15:42:40.547Z,96908.53
2022-11-30T15:45:16.990Z,96909.50
2022-11-30T15:47:43.846Z,96905.69
2022-11-30T15:50:28.627Z,96909.44
2022-11-30T15:52:57.809Z,96897.47
2022-11-30T15:55:47.599Z,96907.97
2022-11-30T15:58:30.905Z,96904.47
2022-11-30T16:01:11.777Z,96910.97
2022-11-30T16:03:58.109Z,96914.78
2022-11-30T16:06:35.236Z,96910.84
2022-11-30T16:09:18.774Z,96908.25
2022-11-30T16:11:47.201Z,96914.47
2022-11-30T16:14:17.276Z,96919.63
2022-11-30T16:16:44.843Z,96917.84
2022-11-30T16:19:11.826Z,96922.22
2022-11-30T16:21:38.780Z,96923.69
2022-11-30T16:24:06.269Z,96918.81
2022-11-30T16:26:50.615Z,96921.94
2022-11-30T16:29:18.023Z,96915.72
2022-11-30T16:31:44.917Z,96920.72
2022-11-30T16:34:12.389Z,96926.63
2022-11-30T16:36:39.322Z,96929.06
2022-11-30T16:39:06.721Z,96934.78
2022-11-30T16:41:35.968Z,96938.88
2022-11-30T16:44:02.643Z,96940.94
2022-11-30T16:46:30.194Z,96931.78
2022-11-30T16:48:57.090Z,96949.53
2022-11-30T16:51:27.301Z,96952.78
2022-11-30T16:53:54.304Z,96960.81
2022-11-30T16:56:21.867Z,96965.97
2022-11-30T16:58:48.898Z,96964.94
2022-11-30T17:01:19.229Z,96959.16
2022-11-30T17:03:48.796Z,96961.00
2022-11-30T17:06:21.752Z,96963.69
2022-11-30T17:08:49.237Z,96968.56
2022-11-30T17:11:25.388Z,96968.84
2022-11-30T17:13:52.278Z,96965.22
2022-11-30T17:16:19.076Z,96958.22
2022-11-30T17:18:45.900Z,96962.63
2022-11-30T17:21:18.388Z,96976.09
2022-11-30T17:23:45.492Z,96975.84
2022-11-30T17:26:13.352Z,96966.06
2022-11-30T17:28:41.757Z,96983.94
2022-11-30T17:31:10.618Z,96984.53
2022-11-30T17:33:37.822Z,96984.72
2022-11-30T17:36:07.601Z,96982.13
2022-11-30T17:38:36.028Z,97001.84
2022-11-30T17:41:06.997Z,96994.38
2022-11-30T17:43:35.784Z,97004.22
2022-11-30T17:46:07.585Z,96994.38
2022-11-30T17:48:34.380Z,96998.75
2022-11-30T17:51:01.213Z,96994.84
2022-11-30T17:53:28.113Z,97000.78
2022-11-30T17:56:10.747Z,96997.91
2022-11-30T17:58:43.924Z,96996.84
2022-11-30T18:01:22.912Z,96993.22
2022-11-30T18:03:50.405Z,97008.81
2022-11-30T18:06:17.526Z,97005.81
2022-11-30T18:08:44.846Z,97010.97
2022-11-30T18:11:17.472Z,97010.78
2022-11-30T18:13:44.501Z,97011.44
2022-11-30T18:16:15.650Z,97012.44
2022-11-30T18:18:47.397Z,97019.59
2022-11-30T18:21:17.225Z,97017.19
2022-11-30T18:23:43.947Z,97027.91
2022-11-30T18:26:14.201Z,97021.59
2022-11-30T18:28:41.738Z,97024.44
2022-11-30T18:31:08.697Z,97029.16
2022-11-30T18:33:36.529Z,97027.91
2022-11-30T18:36:06.761Z,97036.44
2022-11-30T18:38:37.576Z,97027.16
2022-11-30T18:41:06.678Z,97027.22
2022-11-30T18:43:34.397Z,97038.81
2022-11-30T18:46:09.794Z,97037.94
2022-11-30T18:48:37.589Z,97032.31
2022-11-30T18:51:15.953Z,97027.91
2022-11-30T18:53:43.440Z,97035.22
2022-11-30T18:56:11.469Z,97035.03
2022-11-30T18:58:38.316Z,97032.88
2022-11-30T19:01:16.887Z,97033.72
2022-11-30T19:03:44.177Z,97036.28
2022-11-30T19:06:11.647Z,97033.50
2022-11-30T19:08:39.536Z,97032.94
2022-11-30T19:11:08.601Z,97035.63
2022-11-30T19:13:36.028Z,97035.53
2022-11-30T19:16:04.627Z,97031.78
2022-11-30T19:18:31.796Z,97030.25
2022-11-30T19:20:58.542Z,97023.66
2022-11-30T19:23:25.271Z,97022.06
2022-11-30T19:25:52.446Z,97034.22
2022-11-30T19:28:19.638Z,97034.75
2022-11-30T19:30:46.525Z,97031.22
2022-11-30T19:33:14.347Z,97037.13
2022-11-30T19:35:41.072Z,97036.38
2022-11-30T19:38:07.765Z,97036.28
2022-11-30T19:40:34.476Z,97037.06
2022-11-30T19:43:01.195Z,97041.94
2022-11-30T19:45:28.215Z,97030.56
2022-11-30T19:47:55.166Z,97031.34
2022-11-30T19:50:22.676Z,97037.53
2022-11-30T19:52:50.160Z,97037.34
2022-11-30T19:55:17.045Z,97048.38
2022-11-30T19:57:44.807Z,97048.44
2022-11-30T20:00:12.567Z,97047.09
2022-11-30T20:02:42.220Z,97041.44
2022-11-30T20:05:09.340Z,97040.13
2022-11-30T20:07:36.569Z,97045.09
2022-11-30T20:10:03.864Z,97043.28
2022-11-30T20:12:30.522Z,97042.97
2022-11-30T20:14:57.246Z,97048.44
2022-11-30T20:17:23.974Z,97051.50
2022-11-30T20:19:50.797Z,97049.19
2022-11-30T20:22:17.526Z,97051.28
2022-11-30T20:24:44.301Z,97043.47
2022-11-30T20:27:11.046Z,97047.94
2022-11-30T20:29:37.689Z,97046.63
2022-11-30T20:32:04.444Z,97039.38
2022-11-30T20:34:34.762Z,97045.34
2022-11-30T20:37:03.400Z,97048.13
2022-11-30T20:39:30.095Z,97045.09
2022-11-30T20:41:56.824Z,97045.94
2022-11-30T20:44:23.520Z,97045.78
2022-11-30T20:46:50.241Z,97042.97
2022-11-30T20:49:19.241Z,97048.63
2022-11-30T20:51:47.033Z,97055.97
2022-11-30T20:54:14.835Z,97055.69
2022-11-30T20:56:41.756Z,97053.41
2022-11-30T20:59:13.588Z,97055.69
2022-11-30T21:01:45.236Z,97060.56
2022-11-30T21:04:12.270Z,97056.44
2022-11-30T21:06:39.443Z,97058.00
2022-11-30T21:09:06.119Z,97055.13
2022-11-30T21:11:32.853Z,97056.44
2022-11-30T21:13:59.589Z,97057.03
2022-11-30T21:16:28.884Z,97054.63
2022-11-30T21:18:58.574Z,97047.88
2022-11-30T21:21:28.361Z,97060.94
2022-11-30T21:23:55.070Z,97052.59
2022-11-30T21:26:27.383Z,97059.53
2022-11-30T21:28:58.840Z,97062.38
2022-11-30T21:31:25.676Z,97058.56
2022-11-30T21:33:53.770Z,97059.53
2022-11-30T21:36:21.876Z,97050.44
2022-11-30T21:38:53.339Z,97062.31
2022-11-30T21:41:20.276Z,97062.84
2022-11-30T21:43:47.053Z,97064.13
2022-11-30T21:46:17.394Z,97058.75
2022-11-30T21:48:46.512Z,97060.28
2022-11-30T21:51:15.961Z,97051.72
2022-11-30T21:53:48.231Z,97054.56
2022-11-30T21:56:18.212Z,97061.28
2022-11-30T21:58:47.052Z,97056.59
2022-11-30T22:01:17.302Z,97053.78
2022-11-30T22:03:44.184Z,97055.31
2022-11-30T22:06:13.723Z,97057.13
2022-11-30T22:08:41.267Z,97046.63
2022-11-30T22:11:13.750Z,97055.56
2022-11-30T22:13:41.339Z,97057.91
2022-11-30T22:16:10.588Z,97056.94
2022-11-30T22:18:37.852Z,97064.41
2022-11-30T22:21:10.821Z,97058.41
2022-11-30T22:23:39.629Z,97056.13
2022-11-30T22:26:25.848Z,97062.31
2022-11-30T22:28:58.233Z,97069.56
2022-11-30T22:31:30.415Z,97062.31
2022-11-30T22:33:57.875Z,97064.88
2022-11-30T22:36:26.475Z,97059.72
2022-11-30T22:38:57.452Z,97065.66
2022-11-30T22:41:25.063Z,97065.44
2022-11-30T22:43:52.277Z,97069.28
2022-11-30T22:46:23.820Z,97060.47
2022-11-30T22:48:51.151Z,97072.97
2022-11-30T22:51:20.484Z,97067.19
2022-11-30T22:53:48.144Z,97077.53
2022-11-30T22:56:23.215Z,97067.19
2022-11-30T22:58:54.090Z,97062.72
2022-11-30T23:01:25.751Z,97068.94
2022-11-30T23:03:53.918Z,97063.00
2022-11-30T23:06:21.355Z,97066.69
2022-11-30T23:08:49.438Z,97064.63
2022-11-30T23:11:28.485Z,97062.25
2022-11-30T23:13:55.301Z,97058.13
2022-11-30T23:16:22.301Z,97065.59
2022-11-30T23:18:52.401Z,97063.28
2022-11-30T23:21:21.459Z,97061.94
2022-11-30T23:23:48.796Z,97059.91
2022-11-30T23:26:18.952Z,97063.75
2022-11-30T23:28:48.357Z,97058.59
2022-11-30T23:31:34.173Z,97056.59
2022-11-30T23:34:03.854Z,97061.47
2022-11-30T23:36:30.524Z,97042.34
2022-11-30T23:38:59.861Z,97046.16
2022-11-30T23:41:26.636Z,97041.50
2022-11-30T23:43:53.584Z,97052.09
2022-11-30T23:46:21.198Z,97052.38
2022-11-30T23:48:48.455Z,97046.16
2022-11-30T23:51:15.123Z,97047.50
2022-11-30T23:53:41.761Z,97046.16
2022-11-30T23:56:11.796Z,97044.16
2022-11-30T23:58:39.771Z,97043.31
